Time;durP1;ratioP1;P1;durP2;ratioP2;P2;SDS_P1;SDS_P2;PMS_P1;PMS_P2;Temp;Humidity;BMP_temperature;BMP_pressure;BME280_temperature;BME280_humidity;BME280_pressure;Samples;Min_cycle;Max_cycle;Signal;HPM_P1;HPM_P2
2023/11/28 00:01:52;;;;;;;0.50;0.20;;;4.10;95.30;;;5.97;64.16;95280.69;5014588;28;20042;-66
2023/11/28 00:04:20;;;;;;;1.50;0.40;;;4.10;95.80;;;5.90;64.87;95270.88;5014142;28;20400;-65
2023/11/28 00:06:47;;;;;;;0.33;0.33;;;4.10;96.20;;;5.91;65.03;95263.75;5014581;28;20042;-66
2023/11/28 00:09:15;;;;;;;0.43;0.43;;;4.10;95.50;;;5.94;64.53;95273.13;5014338;28;20061;-66
2023/11/28 00:11:43;;;;;;;0.47;0.37;;;4.10;95.80;;;5.88;64.90;95267.59;5014366;28;20041;-66
2023/11/28 00:14:10;;;;;;;0.40;0.40;;;4.00;95.20;;;5.88;65.00;95264.16;5014130;28;20407;-66
2023/11/28 00:16:38;;;;;;;0.30;0.30;;;4.00;95.40;;;5.88;64.70;95262.31;5013237;28;20037;-65
2023/11/28 00:19:06;;;;;;;0.30;0.30;;;4.10;95.70;;;5.89;64.84;95263.13;5014060;28;20053;-66
2023/11/28 00:21:34;;;;;;;0.37;0.20;;;4.00;95.20;;;5.87;65.36;95247.50;5014310;28;20491;-66
2023/11/28 00:24:06;;;;;;;0.30;0.30;;;4.10;95.70;;;5.91;64.46;95250.53;5013610;28;20396;-66
2023/11/28 00:26:35;;;;;;;0.20;0.20;;;4.10;95.30;;;5.94;64.27;95244.09;5014188;28;20046;-66
2023/11/28 00:29:03;;;;;;;0.30;0.23;;;4.10;95.20;;;5.98;64.16;95243.53;5013961;28;20081;-66
2023/11/28 00:31:30;;;;;;;0.20;0.20;;;4.00;95.20;;;6.00;64.36;95243.34;5013229;28;20046;-66
2023/11/28 00:33:58;;;;;;;0.20;0.20;;;4.10;95.10;;;6.02;64.33;95238.69;5012601;28;20050;-66
2023/11/28 00:36:26;;;;;;;0.30;0.30;;;4.10;94.80;;;6.01;64.84;95237.88;5012912;28;20052;-66
2023/11/28 00:38:53;;;;;;;0.83;0.43;;;4.10;94.80;;;5.99;64.35;95228.50;5012990;28;20506;-66
2023/11/28 00:41:23;;;;;;;0.30;0.30;;;4.00;94.90;;;5.86;64.84;95230.00;5011723;28;20137;-66
2023/11/28 00:43:52;;;;;;;0.10;0.10;;;4.00;94.60;;;5.90;64.66;95227.81;5012164;28;20046;-66
2023/11/28 00:46:22;;;;;;;0.20;0.20;;;4.00;95.10;;;5.92;64.77;95234.50;5013651;28;20507;-66
2023/11/28 00:48:50;;;;;;;0.10;0.10;;;4.10;95.20;;;5.89;64.63;95234.06;5012846;28;20046;-64
2023/11/28 00:51:17;;;;;;;1.93;0.30;;;4.10;94.90;;;5.95;64.83;95233.34;5012036;28;20064;-65
2023/11/28 00:53:45;;;;;;;0.20;0.20;;;4.10;94.20;;;5.99;64.39;95237.25;5012297;28;20046;-65
2023/11/28 00:56:20;;;;;;;0.20;0.20;;;4.10;94.30;;;5.95;64.31;95219.28;5012350;28;20523;-65
2023/11/28 00:58:48;;;;;;;0.57;0.30;;;4.10;94.10;;;5.96;64.93;95223.63;5013597;28;20042;-65
2023/11/28 01:01:18;;;;;;;0.50;0.50;;;4.10;94.90;;;6.00;64.15;95223.03;5012461;28;20050;-65
2023/11/28 01:03:45;;;;;;;0.10;0.10;;;4.10;94.80;;;5.97;64.34;95218.16;5012420;28;20056;-65
2023/11/28 01:06:13;;;;;;;0.20;0.20;;;4.20;93.60;;;6.05;64.18;95225.13;5012373;28;20452;-65
2023/11/28 01:08:41;;;;;;;0.20;0.20;;;4.20;94.30;;;6.07;64.15;95223.09;5013606;28;20037;-65
2023/11/28 01:11:08;;;;;;;0.20;0.20;;;4.20;93.70;;;6.07;64.19;95220.44;5012935;28;20045;-66
2023/11/28 01:13:36;;;;;;;0.20;0.20;;;4.20;93.60;;;6.10;64.68;95220.84;5010813;28;20050;-66
2023/11/28 01:16:04;;;;;;;0.20;0.20;;;4.20;93.60;;;6.14;64.11;95208.09;5011739;28;20400;-66
2023/11/28 01:18:32;;;;;;;0.10;0.10;;;4.30;94.70;;;6.19;64.53;95210.16;5012924;28;20059;-65
2023/11/28 01:21:00;;;;;;;0.20;0.20;;;4.40;93.70;;;6.19;64.33;95215.44;5012966;28;20499;-66
2023/11/28 01:23:28;;;;;;;0.40;0.40;;;4.30;93.30;;;6.15;64.02;95216.84;5012016;28;20046;-66
2023/11/28 01:25:55;;;;;;;0.73;0.37;;;4.30;93.70;;;6.15;64.71;95206.28;5012834;28;20042;-65
2023/11/28 01:28:23;;;;;;;0.30;0.27;;;4.30;93.20;;;6.14;64.54;95210.72;5011817;28;20046;-66
2023/11/28 01:30:51;;;;;;;0.30;0.30;;;4.30;93.00;;;6.15;64.50;95207.09;5012781;28;20034;-67
2023/11/28 01:33:18;;;;;;;0.30;0.30;;;4.30;93.50;;;6.18;64.48;95201.41;5012743;28;20046;-67
2023/11/28 01:35:46;;;;;;;0.30;0.17;;;4.40;93.20;;;6.18;64.70;95198.75;5011242;28;20060;-66
2023/11/28 01:38:14;;;;;;;0.17;0.17;;;4.40;92.80;;;6.24;64.47;95191.88;5010664;28;20046;-66
2023/11/28 01:40:42;;;;;;;0.60;0.30;;;4.50;93.20;;;6.20;64.53;95194.09;5011812;28;20506;-67
2023/11/28 01:43:10;;;;;;;0.20;0.20;;;4.40;92.70;;;6.24;64.96;95182.16;5012549;28;20082;-66
2023/11/28 01:45:38;;;;;;;0.20;0.20;;;4.50;93.40;;;6.24;64.65;95184.81;5011194;28;20514;-66
2023/11/28 01:48:06;;;;;;;0.20;0.20;;;4.50;93.10;;;6.24;64.81;95182.16;5011726;28;20419;-66
2023/11/28 01:50:34;;;;;;;0.20;0.20;;;4.50;93.70;;;6.18;64.56;95180.25;4995166;28;20053;-67
2023/11/28 01:53:02;;;;;;;0.20;0.20;;;4.50;93.40;;;6.20;64.75;95175.59;4994991;28;20061;-66
2023/11/28 01:55:30;;;;;;;0.40;0.33;;;4.50;93.50;;;6.26;65.10;95169.56;5011138;28;20046;-66
2023/11/28 01:57:58;;;;;;;0.10;0.10;;;4.50;94.10;;;6.27;64.84;95173.81;4995382;28;20041;-66
2023/11/28 02:00:26;;;;;;;0.30;0.20;;;4.50;94.20;;;6.34;65.00;95180.97;5011232;28;20049;-67
2023/11/28 02:02:59;;;;;;;0.73;0.60;;;4.50;94.40;;;6.38;65.10;95188.31;5012434;28;20102;-66
2023/11/28 02:05:28;;;;;;;0.45;0.40;;;4.60;94.00;;;6.42;64.51;95172.91;5003269;28;20515;-65
2023/11/28 02:07:56;;;;;;;0.20;0.20;;;4.60;93.70;;;6.36;65.29;95179.78;5012283;28;20045;-66
2023/11/28 02:10:24;;;;;;;0.33;0.33;;;4.60;93.30;;;6.34;65.34;95175.69;5010756;28;20057;-65
2023/11/28 02:12:52;;;;;;;0.37;0.37;;;4.60;93.90;;;6.30;65.23;95173.44;5012413;28;20038;-66
2023/11/28 02:15:43;;;;;;;0.30;0.30;;;4.60;94.30;;;6.33;65.17;95174.88;5010409;28;20061;-65
2023/11/28 02:18:12;;;;;;;0.30;0.30;;;4.60;94.50;;;6.39;65.01;95171.44;5012122;28;20053;-66
2023/11/28 02:20:40;;;;;;;0.30;0.30;;;4.70;94.60;;;6.44;65.39;95176.97;5012023;28;20041;-65
2023/11/28 02:23:09;;;;;;;0.20;0.20;;;4.70;95.00;;;6.45;65.04;95170.66;5010570;28;20159;-65
2023/11/28 02:25:47;;;;;;;0.33;0.33;;;4.70;94.30;;;6.46;65.10;95171.50;5011662;28;20042;-65
2023/11/28 02:28:20;;;;;;;0.30;0.30;;;4.70;95.00;;;6.48;64.69;95162.34;5011123;28;20053;-65
2023/11/28 02:30:49;;;;;;;1.10;0.30;;;4.70;95.30;;;6.50;64.58;95168.25;5010872;28;20053;-66
2023/11/28 02:33:17;;;;;;;0.73;0.40;;;4.80;95.00;;;6.49;65.29;95169.28;5010608;28;20046;-65
2023/11/28 02:35:45;;;;;;;0.33;0.30;;;4.70;95.10;;;6.52;65.25;95157.50;5011405;28;20492;-65
2023/11/28 02:38:14;;;;;;;0.30;0.30;;;4.80;95.50;;;6.51;64.78;95169.06;5010351;28;20046;-65
2023/11/28 02:40:42;;;;;;;0.37;0.37;;;4.70;95.60;;;6.45;64.81;95157.44;5010971;28;20042;-65
2023/11/28 02:43:10;;;;;;;0.40;0.40;;;4.60;95.90;;;6.46;64.96;95163.56;5011084;28;20042;-65
2023/11/28 02:45:37;;;;;;;0.40;0.40;;;4.60;96.60;;;6.48;65.58;95157.06;5010027;28;20089;-65
2023/11/28 02:48:05;;;;;;;0.60;0.47;;;4.70;96.70;;;6.51;65.38;95153.19;5011456;28;20046;-65
2023/11/28 02:50:32;;;;;;;0.30;0.30;;;4.70;96.40;;;6.47;65.80;95147.50;5010165;28;20045;-65
2023/11/28 02:53:01;;;;;;;1.43;0.40;;;4.70;96.60;;;6.43;65.13;95154.19;5010185;28;20045;-65
2023/11/28 02:55:28;;;;;;;0.37;0.30;;;4.70;96.80;;;6.52;65.92;95152.22;4992966;28;20076;-64
2023/11/28 02:58:01;;;;;;;1.43;0.40;;;4.80;96.60;;;6.51;65.66;95147.91;5009988;28;20049;-65
2023/11/28 03:00:29;;;;;;;2.17;0.50;;;4.80;96.40;;;6.53;65.44;95145.09;5011153;28;20045;-65
2023/11/28 03:02:56;;;;;;;0.37;0.37;;;4.80;96.90;;;6.56;65.09;95147.34;4994207;28;20046;-64
2023/11/28 03:05:24;;;;;;;0.40;0.40;;;4.80;96.30;;;6.53;65.48;95150.38;5010728;28;20053;-64
2023/11/28 03:07:53;;;;;;;0.70;0.50;;;4.70;97.00;;;6.58;65.08;95142.69;5011317;28;20037;-64
2023/11/28 03:10:20;;;;;;;2.00;0.50;;;4.80;97.40;;;6.55;65.04;95143.88;5010880;28;20046;-64
2023/11/28 03:12:49;;;;;;;0.40;0.40;;;4.70;97.30;;;6.44;65.85;95142.63;5009999;28;20045;-65
2023/11/28 03:15:16;;;;;;;1.20;0.40;;;4.80;97.00;;;6.40;65.62;95146.66;5010619;28;20045;-64
2023/11/28 03:17:45;;;;;;;0.43;0.43;;;4.70;96.60;;;6.40;65.94;95151.94;5009806;28;20053;-63
2023/11/28 03:20:13;;;;;;;0.40;0.40;;;4.70;96.60;;;6.35;65.66;95150.91;5009934;28;20073;-63
2023/11/28 03:22:40;;;;;;;0.67;0.50;;;4.70;98.60;;;6.36;66.59;95142.78;5009884;28;20046;-63
2023/11/28 03:25:11;;;;;;;2.23;0.90;;;4.60;97.80;;;6.33;66.11;95148.44;5009683;28;20046;-62
2023/11/28 03:27:39;;;;;;;0.40;0.40;;;4.60;97.80;;;6.26;66.05;95140.50;5002139;28;20046;-62
2023/11/28 03:30:07;;;;;;;0.73;0.60;;;4.60;98.20;;;6.21;66.42;95142.91;5009885;28;20049;-63
2023/11/28 03:32:35;;;;;;;0.73;0.40;;;4.60;97.70;;;6.29;66.71;95140.09;5002892;28;20046;-63
2023/11/28 03:35:04;;;;;;;0.47;0.33;;;4.60;98.00;;;6.26;66.21;95145.78;5010627;28;20495;-63
2023/11/28 03:37:32;;;;;;;0.50;0.50;;;4.60;97.40;;;6.30;66.02;95140.91;5010697;28;20049;-63
2023/11/28 03:39:59;;;;;;;0.50;0.50;;;4.60;97.70;;;6.38;66.39;95142.56;5009148;28;20060;-64
2023/11/28 03:42:27;;;;;;;0.73;0.57;;;4.70;98.60;;;6.28;66.76;95138.47;5008830;28;20050;-63
2023/11/28 03:44:55;;;;;;;0.30;0.30;;;4.60;97.30;;;6.36;65.95;95134.03;5009437;28;20056;-63
2023/11/28 03:47:22;;;;;;;0.37;0.37;;;4.70;97.30;;;6.35;66.36;95137.69;5010725;28;20045;-64
2023/11/28 03:49:50;;;;;;;0.77;0.47;;;4.60;97.10;;;6.34;66.51;95131.59;5009885;28;20046;-62
2023/11/28 03:52:18;;;;;;;0.40;0.40;;;4.60;98.20;;;6.38;66.54;95135.47;5009566;28;20046;-61
2023/11/28 03:54:46;;;;;;;0.93;0.60;;;4.60;97.90;;;6.43;65.94;95129.59;5010490;28;20042;-62
2023/11/28 03:57:14;;;;;;;0.53;0.53;;;4.70;97.60;;;6.42;66.19;95134.06;5009725;28;20042;-62
2023/11/28 03:59:42;;;;;;;0.90;0.70;;;4.60;97.40;;;6.31;66.07;95131.97;5009597;28;20049;-62
2023/11/28 04:02:09;;;;;;;0.70;0.50;;;4.50;97.70;;;6.28;66.37;95127.91;5009450;28;20058;-62
2023/11/28 04:04:38;;;;;;;0.80;0.50;;;4.50;98.10;;;6.27;66.46;95130.75;5009270;28;20046;-62
2023/11/28 04:07:07;;;;;;;0.43;0.40;;;4.50;98.00;;;6.29;66.54;95132.16;5009397;28;20057;-62
2023/11/28 04:09:36;;;;;;;1.20;0.50;;;4.50;98.80;;;6.33;66.53;95131.78;5009301;28;20045;-62
2023/11/28 04:12:05;;;;;;;0.30;0.30;;;4.50;98.60;;;6.30;66.47;95131.16;5009179;28;20388;-62
2023/11/28 04:14:33;;;;;;;0.40;0.40;;;4.50;98.30;;;6.27;66.50;95138.66;5009210;28;20049;-63
2023/11/28 04:17:01;;;;;;;0.40;0.40;;;4.50;97.50;;;6.22;66.80;95139.25;5010356;28;20053;-63
2023/11/28 04:19:29;;;;;;;0.30;0.30;;;4.50;98.70;;;6.18;67.03;95142.47;4993261;28;20053;-63
2023/11/28 04:21:57;;;;;;;0.50;0.50;;;4.50;98.10;;;6.19;66.69;95146.75;5008680;28;20054;-62
2023/11/28 04:24:24;;;;;;;0.80;0.73;;;4.50;98.50;;;6.13;66.91;95140.44;5009015;28;20061;-62
2023/11/28 04:26:52;;;;;;;1.47;0.37;;;4.40;99.00;;;6.13;67.19;95145.72;5009370;28;20046;-62
2023/11/28 04:29:21;;;;;;;0.70;0.40;;;4.40;99.20;;;6.15;66.96;95145.53;5011762;28;20049;-62
2023/11/28 04:31:49;;;;;;;0.30;0.30;;;4.40;99.90;;;6.22;66.38;95159.56;5012884;28;20113;-62
2023/11/28 04:34:17;;;;;;;0.30;0.30;;;4.50;99.90;;;6.22;67.28;95159.56;5011911;28;20073;-62
2023/11/28 04:36:45;;;;;;;0.33;0.33;;;4.50;99.90;;;6.21;66.77;95164.03;5010472;28;20049;-62
2023/11/28 04:39:14;;;;;;;0.30;0.30;;;4.50;99.90;;;6.20;67.35;95170.31;5011323;28;20519;-62
2023/11/28 04:41:45;;;;;;;0.40;0.40;;;4.50;99.90;;;6.07;68.73;95181.63;5013792;28;20054;-62
2023/11/28 04:44:13;;;;;;;0.77;0.70;;;4.50;99.90;;;5.86;70.73;95192.22;5012382;28;20064;-62
2023/11/28 04:46:40;;;;;;;0.57;0.50;;;4.60;99.90;;;5.79;71.25;95194.78;5013604;28;20457;-62
2023/11/28 04:49:11;;;;;;;0.63;0.50;;;4.60;99.90;;;5.69;71.04;95195.13;5012259;28;20057;-62
2023/11/28 04:51:40;;;;;;;0.80;0.77;;;4.60;99.90;;;5.53;71.97;95196.22;5012366;28;20045;-63
2023/11/28 04:54:09;;;;;;;1.70;1.10;;;4.50;99.90;;;5.63;71.48;95192.44;5012318;28;20038;-63
2023/11/28 04:56:37;;;;;;;1.40;1.00;;;4.50;99.90;;;5.52;72.72;95196.41;5012146;28;20053;-62
2023/11/28 04:59:04;;;;;;;1.23;1.13;;;4.60;99.90;;;5.57;72.05;95201.94;5012506;28;20049;-63
2023/11/28 05:01:32;;;;;;;2.30;1.73;;;4.60;99.90;;;5.52;72.57;95209.59;5012249;28;20076;-63
2023/11/28 05:04:04;;;;;;;1.73;1.43;;;4.50;99.90;;;5.62;71.80;95198.72;5012287;28;20124;-62
2023/11/28 05:06:32;;;;;;;1.13;1.00;;;4.50;99.90;;;5.64;71.88;95192.25;5012216;28;20507;-62
2023/11/28 05:08:59;;;;;;;1.57;1.10;;;4.50;99.90;;;5.57;71.95;95199.28;5011924;28;20428;-62
2023/11/28 05:11:28;;;;;;;1.10;1.00;;;4.50;99.90;;;5.48;72.41;95203.88;5011892;28;20049;-63
2023/11/28 05:13:56;;;;;;;1.10;1.00;;;4.50;99.90;;;5.41;73.06;95210.94;5003852;28;20042;-63
2023/11/28 05:16:24;;;;;;;1.00;0.90;;;4.40;99.90;;;5.33;73.08;95214.50;5012210;28;20050;-64
2023/11/28 05:18:52;;;;;;;1.33;1.00;;;4.40;99.90;;;5.22;73.59;95219.47;5012015;28;20049;-63
2023/11/28 05:21:20;;;;;;;3.03;1.30;;;4.30;99.90;;;5.49;72.94;95228.47;5012123;28;20058;-64
2023/11/28 05:23:52;;;;;;;1.73;1.37;;;4.40;99.90;;;5.29;73.37;95228.25;5011709;28;20054;-64
2023/11/28 05:26:21;;;;;;;1.57;1.10;;;4.30;99.90;;;5.44;72.36;95231.66;5011495;28;20055;-64
2023/11/28 05:28:51;;;;;;;2.10;1.60;;;4.40;99.90;;;5.36;72.65;95239.69;5013104;28;20042;-64
2023/11/28 05:31:19;;;;;;;1.57;1.23;;;4.30;99.90;;;5.51;71.96;95244.94;4995842;28;20050;-64
2023/11/28 05:33:47;;;;;;;1.77;1.57;;;4.40;99.90;;;5.27;72.12;95239.00;5011647;28;20411;-63
2023/11/28 05:36:16;;;;;;;3.07;1.60;;;4.30;99.90;;;5.11;72.44;95241.84;5013053;28;20041;-64
2023/11/28 05:38:46;;;;;;;2.47;1.60;;;4.20;99.90;;;5.29;72.17;95244.91;5011710;28;20423;-63
2023/11/28 05:41:14;;;;;;;1.60;1.40;;;4.30;99.90;;;5.14;72.67;95249.41;5009927;28;20168;-64
2023/11/28 05:43:42;;;;;;;1.67;1.10;;;4.20;99.90;;;5.07;72.69;95257.22;5011363;28;20426;-63
2023/11/28 05:46:10;;;;;;;1.90;1.40;;;4.10;99.90;;;5.16;72.72;95255.31;5011407;28;20045;-63
2023/11/28 05:48:38;;;;;;;2.20;1.27;;;4.10;99.90;;;5.05;72.58;95263.72;5011485;28;20050;-63
2023/11/28 05:51:08;;;;;;;2.07;1.57;;;4.00;99.90;;;5.06;72.19;95255.63;5011508;28;20046;-64
2023/11/28 05:53:41;;;;;;;2.10;1.30;;;4.00;99.90;;;4.95;72.61;95273.72;5011209;28;20046;-64
2023/11/28 05:56:11;;;;;;;1.87;1.50;;;3.90;99.90;;;4.96;71.83;95278.00;5010930;28;20052;-63
2023/11/28 05:58:40;;;;;;;1.97;1.00;;;3.80;99.90;;;4.82;71.93;95283.09;5011402;28;20045;-64
2023/11/28 06:01:12;;;;;;;1.77;1.17;;;3.70;99.90;;;4.68;72.06;95289.19;5011036;28;20503;-63
2023/11/28 06:03:39;;;;;;;1.53;1.20;;;3.70;99.90;;;4.63;72.85;95296.81;5011249;28;20072;-62
2023/11/28 06:06:08;;;;;;;2.03;1.50;;;3.70;99.90;;;4.66;72.41;95302.56;5011237;28;20073;-62
2023/11/28 06:08:36;;;;;;;1.13;1.03;;;3.60;99.90;;;4.28;73.90;95301.78;4994709;28;20049;-62
2023/11/28 06:11:04;;;;;;;2.63;0.80;;;3.50;99.90;;;4.31;73.14;95325.97;5011124;28;20046;-62
2023/11/28 06:13:31;;;;;;;1.80;1.33;;;3.40;99.90;;;4.24;73.30;95332.13;5011033;28;20554;-62
2023/11/28 06:16:03;;;;;;;1.40;1.03;;;3.40;99.90;;;4.09;74.54;95326.81;5010792;28;20042;-61
2023/11/28 06:18:30;;;;;;;1.27;1.10;;;3.30;99.90;;;3.94;74.75;95340.75;4995123;28;20046;-62
2023/11/28 06:20:58;;;;;;;1.43;1.10;;;3.30;99.90;;;3.94;74.69;95343.38;5010910;28;20042;-62
2023/11/28 06:23:26;;;;;;;6.07;3.20;;;3.20;99.90;;;4.12;74.23;95355.44;5010731;28;20053;-62
2023/11/28 06:25:55;;;;;;;2.30;1.30;;;3.20;99.90;;;3.99;72.94;95377.06;5011823;28;20042;-62
2023/11/28 06:28:22;;;;;;;3.93;2.33;;;3.00;99.90;;;3.55;72.62;95398.75;5010935;28;20050;-62
2023/11/28 06:30:50;;;;;;;3.17;2.20;;;2.40;99.90;;;3.53;72.33;95395.47;5010626;28;20049;-61
2023/11/28 06:33:17;;;;;;;2.13;1.43;;;2.30;99.90;;;3.40;72.34;95413.63;5010937;28;20053;-61
2023/11/28 06:35:46;;;;;;;1.20;0.93;;;2.10;99.90;;;3.17;72.51;95406.47;5010046;28;20050;-61
2023/11/28 06:38:14;;;;;;;1.00;0.80;;;1.90;99.90;;;3.00;72.66;95420.66;5011774;28;20046;-61
2023/11/28 06:40:42;;;;;;;1.03;0.93;;;1.80;99.90;;;2.98;72.37;95422.63;5010950;28;20400;-61
2023/11/28 06:43:10;;;;;;;3.07;1.33;;;1.70;99.90;;;2.81;73.25;95422.69;5011413;28;20054;-61
2023/11/28 06:45:38;;;;;;;3.70;2.13;;;1.70;99.90;;;2.91;72.83;95438.25;5011124;28;20049;-61
2023/11/28 06:48:07;;;;;;;4.10;1.77;;;1.70;99.90;;;2.76;73.20;95444.19;5011702;28;20037;-61
2023/11/28 06:50:35;;;;;;;7.93;4.23;;;1.70;99.90;;;2.73;73.47;95460.28;5011367;28;20046;-62
2023/11/28 06:53:03;;;;;;;4.73;2.07;;;1.70;99.90;;;2.89;72.96;95462.06;5011661;28;20042;-61
2023/11/28 06:55:31;;;;;;;3.30;2.10;;;1.70;99.90;;;3.04;72.71;95479.78;5011079;28;20139;-61
2023/11/28 06:57:58;;;;;;;6.57;2.70;;;1.80;99.90;;;2.95;72.70;95479.00;5011536;28;20041;-61
2023/11/28 07:00:26;;;;;;;2.70;1.73;;;1.80;99.90;;;2.95;72.85;95484.25;5011215;28;20197;-60
2023/11/28 07:02:54;;;;;;;5.13;2.93;;;1.70;99.90;;;2.96;72.61;95497.19;5010140;28;20423;-61
2023/11/28 07:05:21;;;;;;;3.87;1.47;;;1.70;99.90;;;2.99;72.59;95484.75;5011118;28;20042;-60
2023/11/28 07:07:49;;;;;;;2.10;1.63;;;1.70;99.90;;;2.88;72.71;95499.84;5011061;28;20068;-61
2023/11/28 07:10:17;;;;;;;2.57;1.50;;;1.70;99.90;;;2.80;72.93;95509.56;5011237;28;20387;-61
2023/11/28 07:12:44;;;;;;;1.83;0.90;;;1.70;99.90;;;2.70;73.25;95522.88;5010578;28;20046;-60
2023/11/28 07:15:13;;;;;;;2.23;1.10;;;1.60;99.90;;;2.61;73.43;95524.66;5011118;28;20054;-60
2023/11/28 07:17:41;;;;;;;1.37;1.10;;;1.60;99.90;;;2.61;73.16;95532.53;5009958;28;20057;-61
2023/11/28 07:20:10;;;;;;;1.53;1.00;;;1.60;99.90;;;2.66;73.22;95534.69;5011100;28;20054;-61
2023/11/28 07:22:38;;;;;;;1.23;1.13;;;1.50;99.90;;;2.74;72.57;95547.81;5011079;28;20053;-62
2023/11/28 07:25:07;;;;;;;2.17;1.47;;;1.60;99.90;;;2.78;73.00;95561.47;5010569;28;20061;-62
2023/11/28 07:27:35;;;;;;;2.03;1.47;;;1.60;99.90;;;2.72;72.93;95562.94;5010911;28;20049;-60
2023/11/28 07:30:03;;;;;;;2.37;1.80;;;1.50;99.90;;;2.69;72.94;95569.31;5010994;28;20046;-60
2023/11/28 07:32:31;;;;;;;2.43;1.53;;;1.50;99.90;;;2.57;72.90;95575.88;5011102;28;20046;-59
2023/11/28 07:34:59;;;;;;;2.37;1.90;;;1.40;99.90;;;2.48;73.24;95582.09;5002581;28;20050;-60
2023/11/28 07:37:27;;;;;;;2.50;1.57;;;1.40;99.90;;;2.59;72.93;95587.03;5010110;28;20060;-61
2023/11/28 07:39:54;;;;;;;1.90;1.67;;;1.40;99.90;;;2.57;73.21;95583.75;5006811;28;20050;-60
2023/11/28 07:42:22;;;;;;;2.13;1.53;;;1.40;99.90;;;2.65;72.57;95594.28;5004225;28;20507;-60
2023/11/28 07:44:50;;;;;;;1.90;1.53;;;1.40;99.90;;;2.63;72.63;95614.63;5008632;28;20054;-61
2023/11/28 07:47:17;;;;;;;2.73;1.80;;;1.40;99.90;;;2.44;72.87;95621.00;5010617;28;20046;-62
2023/11/28 07:49:45;;;;;;;2.43;2.20;;;1.30;99.90;;;2.47;72.93;95631.19;5010502;28;20049;-61
2023/11/28 07:52:13;;;;;;;1.87;1.53;;;1.30;99.90;;;2.45;72.63;95637.59;5010759;28;20278;-62
2023/11/28 07:54:41;;;;;;;2.20;2.00;;;1.30;99.90;;;2.45;72.89;95640.22;5009388;28;20286;-60
2023/11/28 07:57:08;;;;;;;1.97;1.63;;;1.30;99.90;;;2.41;72.42;95639.72;5010653;28;20045;-60
2023/11/28 07:59:36;;;;;;;2.13;1.80;;;1.30;99.90;;;2.37;72.44;95648.88;5010646;28;20044;-59
2023/11/28 08:02:03;;;;;;;3.90;2.10;;;1.30;99.90;;;2.29;73.37;95659.38;5010682;28;20045;-60
2023/11/28 08:04:31;;;;;;;2.17;1.73;;;1.30;99.90;;;2.26;73.47;95659.69;5013408;28;20050;-59
2023/11/28 08:06:59;;;;;;;3.43;2.67;;;1.20;99.90;;;2.43;72.80;95658.75;5014348;28;20049;-60
2023/11/28 08:09:27;;;;;;;2.80;2.27;;;1.30;99.90;;;2.35;73.04;95671.88;5014214;28;20420;-59
2023/11/28 08:11:54;;;;;;;2.40;1.80;;;1.30;99.90;;;2.24;73.05;95675.59;5014090;28;20042;-59
2023/11/28 08:14:22;;;;;;;3.30;2.03;;;1.20;99.90;;;2.50;72.51;95675.53;5013927;28;20057;-60
2023/11/28 08:16:50;;;;;;;2.43;1.80;;;1.30;99.90;;;2.54;72.53;95687.38;5014254;28;20041;-59
2023/11/28 08:19:18;;;;;;;2.30;1.60;;;1.30;99.90;;;2.49;72.34;95688.81;5014236;28;20050;-60
2023/11/28 08:21:45;;;;;;;2.53;2.10;;;1.30;99.90;;;2.52;72.36;95694.59;5014244;28;20046;-59
2023/11/28 08:24:13;;;;;;;2.00;1.63;;;1.30;99.90;;;2.32;72.71;95706.31;5013912;28;20057;-59
2023/11/28 08:26:41;;;;;;;2.13;1.37;;;1.20;99.90;;;2.20;73.19;95704.94;5014828;28;20050;-60
2023/11/28 08:29:08;;;;;;;2.50;2.10;;;1.10;99.90;;;2.13;73.20;95712.59;5014223;28;20519;-61
2023/11/28 08:31:36;;;;;;;1.80;1.30;;;1.10;99.90;;;2.14;73.88;95714.28;5014620;28;20057;-61
2023/11/28 08:34:04;;;;;;;2.90;2.27;;;1.10;99.90;;;2.19;73.22;95727.75;5006263;28;20419;-60
2023/11/28 08:36:32;;;;;;;3.23;2.00;;;1.00;99.90;;;2.42;73.02;95728.00;5014173;28;20423;-60
2023/11/28 08:38:59;;;;;;;2.60;1.90;;;1.20;99.90;;;2.47;72.82;95741.50;5013733;28;20054;-60
2023/11/28 08:41:27;;;;;;;1.67;1.40;;;1.20;99.90;;;2.25;72.94;95749.91;5012032;28;20054;-61
2023/11/28 08:43:55;;;;;;;3.47;2.10;;;1.10;99.90;;;2.35;72.87;95761.97;5013328;28;20053;-60
2023/11/28 08:46:22;;;;;;;2.03;1.57;;;1.10;99.90;;;2.28;73.19;95775.88;5013727;28;20049;-59
2023/11/28 08:48:50;;;;;;;1.80;1.57;;;1.10;99.90;;;2.22;73.50;95779.94;5012635;28;20046;-59
2023/11/28 08:51:18;;;;;;;1.80;1.57;;;1.00;99.90;;;2.29;72.87;95774.91;5012536;28;20042;-60
2023/11/28 08:53:46;;;;;;;3.07;2.00;;;1.10;99.90;;;2.36;73.01;95795.16;5013535;28;20360;-60
2023/11/28 08:56:14;;;;;;;3.77;2.60;;;1.10;99.90;;;2.25;73.22;95794.56;5013401;28;20049;-59
2023/11/28 08:58:42;;;;;;;2.70;2.37;;;1.00;99.90;;;2.24;72.84;95804.25;5013240;28;20052;-59
2023/11/28 09:01:09;;;;;;;2.27;1.80;;;1.00;99.90;;;2.27;73.07;95814.44;5013514;28;20158;-59
2023/11/28 09:03:37;;;;;;;2.73;2.20;;;1.10;99.90;;;2.33;72.89;95829.59;5013721;28;20104;-59
2023/11/28 09:06:07;;;;;;;2.20;1.80;;;1.10;99.90;;;2.31;72.91;95821.03;5013141;28;20046;-59
2023/11/28 09:08:35;;;;;;;2.73;1.47;;;1.10;99.90;;;2.29;72.92;95835.31;5013253;28;20430;-59
2023/11/28 09:11:06;;;;;;;2.60;1.73;;;1.10;99.90;;;2.09;73.09;95839.91;5013258;28;20038;-59
2023/11/28 09:13:33;;;;;;;2.07;1.87;;;1.00;99.90;;;2.33;72.57;95842.72;5011931;28;20030;-59
2023/11/28 09:16:08;;;;;;;1.53;1.33;;;1.10;99.90;;;2.35;72.75;95855.69;5012860;28;20042;-59
2023/11/28 09:18:36;;;;;;;1.90;1.53;;;1.00;99.90;;;2.16;73.36;95846.22;5013147;28;20045;-59
2023/11/28 09:21:04;;;;;;;2.10;1.77;;;1.00;99.90;;;2.20;72.62;95857.22;5012614;28;20046;-60
2023/11/28 09:23:32;;;;;;;2.87;1.63;;;1.00;99.90;;;2.39;72.77;95864.09;5013170;28;20057;-59
2023/11/28 09:26:00;;;;;;;1.73;1.60;;;1.10;99.90;;;2.23;72.76;95867.41;5012715;28;20046;-59
2023/11/28 09:28:32;;;;;;;3.03;2.27;;;1.00;99.90;;;2.16;72.93;95870.66;5011964;28;20034;-59
2023/11/28 09:31:00;;;;;;;1.67;1.43;;;0.90;99.90;;;2.21;72.80;95882.50;5011533;28;20495;-59
2023/11/28 09:33:28;;;;;;;2.10;1.57;;;0.90;99.90;;;2.20;72.82;95886.13;5012950;28;20038;-59
2023/11/28 09:35:55;;;;;;;2.50;2.10;;;1.00;99.90;;;2.22;72.72;95887.59;5011225;28;20061;-59
2023/11/28 09:38:23;;;;;;;1.80;1.67;;;1.00;99.90;;;2.11;73.09;95885.22;5013035;28;20049;-59
2023/11/28 09:40:51;;;;;;;1.57;1.47;;;0.90;99.90;;;2.16;72.96;95903.97;5012816;28;20045;-59
2023/11/28 09:43:26;;;;;;;2.60;2.10;;;0.90;99.90;;;2.14;73.20;95906.72;5012449;28;20049;-59
2023/11/28 09:46:00;;;;;;;2.50;2.03;;;0.90;99.90;;;2.17;72.96;95905.59;5012342;28;20048;-59
2023/11/28 09:48:29;;;;;;;1.97;1.67;;;0.90;99.90;;;2.16;72.91;95917.09;5011581;28;20053;-59
2023/11/28 09:51:01;;;;;;;2.50;2.27;;;0.90;99.90;;;2.16;73.11;95917.09;5011044;28;20038;-59
2023/11/28 09:53:31;;;;;;;2.43;2.17;;;1.00;99.90;;;2.09;73.12;95929.16;5011608;28;20049;-60
2023/11/28 09:56:03;;;;;;;2.43;1.60;;;1.00;99.90;;;2.03;73.07;95924.53;5010924;28;20495;-60
2023/11/28 09:58:32;;;;;;;2.23;1.70;;;0.90;99.90;;;1.90;73.00;95935.38;5011117;28;20042;-60
2023/11/28 10:01:03;;;;;;;2.07;1.70;;;0.90;99.90;;;1.94;72.97;95937.56;5011213;28;20057;-60
2023/11/28 10:03:32;;;;;;;2.53;2.00;;;0.90;99.90;;;2.16;73.14;95946.78;5012475;28;20049;-60
2023/11/28 10:05:59;;;;;;;2.60;2.10;;;1.00;99.90;;;2.12;73.23;95950.69;5012166;28;20054;-60
2023/11/28 10:08:33;;;;;;;4.03;2.33;;;1.00;99.90;;;2.30;72.72;95952.50;5010997;28;20046;-59
2023/11/28 10:11:03;;;;;;;3.50;3.00;;;1.00;99.90;;;2.30;72.26;95953.31;5012037;28;20045;-60
2023/11/28 10:13:30;;;;;;;2.60;2.30;;;1.10;99.90;;;2.39;72.46;95959.47;5010992;28;20046;-59
2023/11/28 10:15:59;;;;;;;2.73;1.90;;;1.10;99.90;;;2.13;71.80;95973.38;5010452;28;20042;-60
2023/11/28 10:18:27;;;;;;;3.33;2.47;;;1.00;99.90;;;2.22;72.14;95970.81;5010957;28;20045;-59
2023/11/28 10:20:55;;;;;;;2.40;2.00;;;1.10;99.90;;;2.26;72.53;95980.84;5011768;28;20050;-59
2023/11/28 10:23:24;;;;;;;4.07;2.57;;;1.10;99.90;;;2.24;71.74;95987.22;5012132;28;20053;-59
2023/11/28 10:25:52;;;;;;;3.17;2.53;;;1.00;99.90;;;2.15;71.61;95978.44;5010992;28;20042;-59
2023/11/28 10:28:24;;;;;;;1.87;1.70;;;1.10;99.90;;;2.05;72.08;95996.06;4994739;28;20061;-60
2023/11/28 10:30:51;;;;;;;2.43;1.90;;;1.00;99.90;;;2.10;71.52;95981.53;5010397;28;20060;-60
2023/11/28 10:33:21;;;;;;;2.67;1.80;;;1.00;99.90;;;2.20;71.58;95996.38;5011938;28;20046;-59
2023/11/28 10:35:49;;;;;;;3.07;1.60;;;1.00;99.90;;;2.05;72.12;96004.75;5012068;28;20426;-59
2023/11/28 10:38:18;;;;;;;1.87;1.50;;;0.90;99.90;;;2.04;72.12;96012.81;5004433;28;20038;-59